createdAt,value
2023-04-04T00:01:07.719Z,98982.25
2023-04-04T00:03:36.228Z,98979.16
2023-04-04T00:06:04.686Z,98989.31
2023-04-04T00:08:33.136Z,98986.44
2023-04-04T00:11:02.250Z,98998.13
2023-04-04T00:13:31.092Z,99002.19
2023-04-04T00:15:59.742Z,99001.38
2023-04-04T00:18:28.410Z,99004.63
2023-04-04T00:20:56.884Z,99018.06
2023-04-04T00:23:25.354Z,99022.84
2023-04-04T00:25:54.486Z,99031.47
2023-04-04T00:28:23.386Z,99044.72
2023-04-04T00:30:51.864Z,99044.88
2023-04-04T00:33:20.419Z,99046.84
2023-04-04T00:35:50.195Z,99050.59
2023-04-04T00:38:18.604Z,99049.75
2023-04-04T00:40:50.599Z,99057.56
2023-04-04T00:43:20.114Z,99052.09
2023-04-04T00:45:48.873Z,99064.00
2023-04-04T00:48:17.553Z,99071.84
2023-04-04T00:50:45.947Z,99073.28
2023-04-04T00:53:14.373Z,99077.34
2023-04-04T00:55:44.414Z,99065.47
2023-04-04T00:58:13.435Z,99081.75
2023-04-04T01:00:42.302Z,99083.41
2023-04-04T01:03:13.618Z,99096.09
2023-04-04T01:05:42.772Z,99100.31
2023-04-04T01:08:11.253Z,99103.84
2023-04-04T01:10:41.701Z,99104.50
2023-04-04T01:13:10.748Z,99104.41
2023-04-04T01:15:39.254Z,99112.25
2023-04-04T01:18:08.726Z,99114.44
2023-04-04T01:20:43.667Z,99111.53
2023-04-04T01:23:13.676Z,99115.78
2023-04-04T01:25:42.459Z,99122.06
2023-04-04T01:28:11.030Z,99117.88
2023-04-04T01:30:42.189Z,99122.66
2023-04-04T01:33:33.186Z,99123.50
2023-04-04T01:36:07.620Z,99128.28
2023-04-04T01:38:48.228Z,99131.75
2023-04-04T01:41:18.871Z,99137.34
2023-04-04T01:43:47.705Z,99141.56
2023-04-04T01:46:19.575Z,99144.06
2023-04-04T01:48:48.098Z,99143.41
2023-04-04T01:51:17.236Z,99143.28
2023-04-04T01:53:45.875Z,99141.69
2023-04-04T01:56:14.287Z,99142.34
2023-04-04T01:58:42.677Z,99142.22
2023-04-04T02:01:11.101Z,99145.69
2023-04-04T02:03:39.522Z,99143.50
2023-04-04T02:06:08.868Z,99140.59
2023-04-04T02:08:37.391Z,99147.84
2023-04-04T02:11:05.874Z,99148.50
2023-04-04T02:13:34.310Z,99151.94
2023-04-04T02:16:02.780Z,99144.13
2023-04-04T02:18:31.201Z,99141.19
2023-04-04T02:20:59.599Z,99144.84
2023-04-04T02:23:28.031Z,99144.19
2023-04-04T02:25:56.555Z,99138.44
2023-04-04T02:28:24.991Z,99146.97
2023-04-04T02:30:53.409Z,99147.81
2023-04-04T02:33:21.863Z,99144.31
2023-04-04T02:35:50.356Z,99147.22
2023-04-04T02:38:18.765Z,99140.88
2023-04-04T02:40:47.437Z,99135.84
2023-04-04T02:43:15.847Z,99140.81
2023-04-04T02:45:44.291Z,99135.25
2023-04-04T02:48:12.729Z,99135.84
2023-04-04T02:50:41.276Z,99126.69
2023-04-04T02:53:09.759Z,99126.22
2023-04-04T02:55:38.246Z,99118.34
2023-04-04T02:58:06.685Z,99117.81
2023-04-04T03:00:35.050Z,99110.91
2023-04-04T03:03:03.559Z,99115.09
2023-04-04T03:05:35.507Z,99116.09
2023-04-04T03:08:03.936Z,99109.94
2023-04-04T03:10:32.596Z,99105.84
2023-04-04T03:13:01.460Z,99110.97
2023-04-04T03:15:30.082Z,99111.56
2023-04-04T03:17:59.838Z,99104.44
2023-04-04T03:20:29.056Z,99102.56
2023-04-04T03:22:58.683Z,99096.38
2023-04-04T03:25:27.221Z,99087.72
2023-04-04T03:27:55.706Z,99084.19
2023-04-04T03:30:24.336Z,99088.34
2023-04-04T03:32:52.757Z,99079.84
2023-04-04T03:35:21.220Z,99077.22
2023-04-04T03:37:49.634Z,99070.81
2023-04-04T03:40:18.128Z,99074.38
2023-04-04T03:42:46.669Z,99064.03
2023-04-04T03:45:15.111Z,99060.06
2023-04-04T03:47:43.533Z,99058.72
2023-04-04T03:50:12.418Z,99058.69
2023-04-04T03:52:43.809Z,99062.31
2023-04-04T03:55:12.346Z,99057.94
2023-04-04T03:57:40.784Z,99044.31
2023-04-04T04:00:09.714Z,99044.69
2023-04-04T04:02:38.217Z,99040.53
2023-04-04T04:05:07.073Z,99032.00
2023-04-04T04:07:35.654Z,99027.78
2023-04-04T04:10:04.533Z,99029.28
2023-04-04T04:12:32.923Z,99027.91
2023-04-04T04:15:01.882Z,99025.81
2023-04-04T04:17:30.298Z,99024.44
2023-04-04T04:19:58.706Z,99017.97
2023-04-04T04:22:27.128Z,99007.91
2023-04-04T04:24:55.555Z,98996.31
2023-04-04T04:27:24.715Z,98991.16
2023-04-04T04:29:53.151Z,98991.53
2023-04-04T04:32:21.829Z,98984.28
2023-04-04T04:34:50.205Z,98987.81
2023-04-04T04:37:18.699Z,98979.66
2023-04-04T04:39:47.126Z,98970.88
2023-04-04T04:42:15.645Z,98970.66
2023-04-04T04:44:44.001Z,98966.41
2023-04-04T04:47:12.402Z,98953.63
2023-04-04T04:49:40.946Z,98955.66
2023-04-04T04:52:09.440Z,98947.06
2023-04-04T04:54:37.913Z,98944.16
2023-04-04T04:57:06.350Z,98935.53
2023-04-04T04:59:34.725Z,98926.78
2023-04-04T05:02:03.167Z,98921.25
2023-04-04T05:04:31.712Z,98925.91
2023-04-04T05:07:00.176Z,98910.38
2023-04-04T05:09:28.699Z,98910.53
2023-04-04T05:11:57.397Z,98904.25
2023-04-04T05:14:25.806Z,98901.56
2023-04-04T05:16:54.548Z,98892.94
2023-04-04T05:19:23.613Z,98885.50
2023-04-04T05:21:52.115Z,98886.41
2023-04-04T05:24:20.713Z,98877.28
2023-04-04T05:26:49.114Z,98861.47
2023-04-04T05:29:17.503Z,98861.78
2023-04-04T05:31:45.926Z,98848.03
2023-04-04T05:34:14.314Z,98845.50
2023-04-04T05:36:42.752Z,98836.72
2023-04-04T05:39:11.137Z,98829.25
2023-04-04T05:41:39.654Z,98822.38
2023-04-04T05:44:08.126Z,98823.72
2023-04-04T05:46:36.835Z,98814.28
2023-04-04T05:49:05.329Z,98803.34
2023-04-04T05:51:33.746Z,98801.09
2023-04-04T05:54:02.137Z,98791.66
2023-04-04T05:56:30.688Z,98787.88
2023-04-04T05:59:00.260Z,98788.31
2023-04-04T06:01:30.270Z,98777.69
2023-04-04T06:03:58.707Z,98775.88
2023-04-04T06:06:27.343Z,98765.69
2023-04-04T06:08:55.799Z,98758.34
2023-04-04T06:11:24.336Z,98752.66
2023-04-04T06:13:54.072Z,98750.03
2023-04-04T06:16:23.602Z,98729.06
2023-04-04T06:18:52.129Z,98731.19
2023-04-04T06:21:20.518Z,98720.25
2023-04-04T06:23:48.880Z,98723.16
2023-04-04T06:26:17.634Z,98712.66
2023-04-04T06:28:52.407Z,98702.03
2023-04-04T06:31:20.898Z,98696.00
2023-04-04T06:33:49.343Z,98690.03
2023-04-04T06:36:17.892Z,98685.56
2023-04-04T06:38:46.565Z,98680.00
2023-04-04T06:41:14.933Z,98675.50
2023-04-04T06:43:43.407Z,98667.22
2023-04-04T06:46:11.827Z,98668.31
2023-04-04T06:48:40.183Z,98661.88
2023-04-04T06:51:09.440Z,98656.44
2023-04-04T06:53:38.558Z,98650.44
2023-04-04T06:56:07.448Z,98646.69
2023-04-04T06:58:35.892Z,98634.41
2023-04-04T07:01:04.311Z,98633.63
2023-04-04T07:03:33.102Z,98625.78
2023-04-04T07:06:05.340Z,98627.75
2023-04-04T07:08:36.873Z,98620.22
2023-04-04T07:11:07.381Z,98610.44
2023-04-04T07:13:36.418Z,98601.28
2023-04-04T07:16:04.887Z,98598.28
2023-04-04T07:18:33.417Z,98598.28
2023-04-04T07:21:01.900Z,98601.56
2023-04-04T07:23:30.275Z,98603.94
2023-04-04T07:25:58.814Z,98599.47
2023-04-04T07:28:27.305Z,98589.56
2023-04-04T07:30:55.751Z,98579.66
2023-04-04T07:33:24.224Z,98576.31
2023-04-04T07:35:54.118Z,98578.84
2023-04-04T07:38:22.885Z,98561.13
2023-04-04T07:40:51.588Z,98559.28
2023-04-04T07:43:19.981Z,98566.69
2023-04-04T07:45:48.518Z,98557.84
2023-04-04T07:48:17.002Z,98557.72
2023-04-04T07:50:45.452Z,98548.28
2023-04-04T07:53:13.813Z,98543.94
2023-04-04T07:55:42.243Z,98537.50
2023-04-04T07:58:10.617Z,98532.53
2023-04-04T08:00:39.254Z,98531.03
2023-04-04T08:03:08.089Z,98527.28
2023-04-04T08:05:36.613Z,98524.28
2023-04-04T08:08:05.044Z,98529.69
2023-04-04T08:10:33.484Z,98525.22
2023-04-04T08:13:01.934Z,98521.47
2023-04-04T08:15:31.806Z,98514.16
2023-04-04T08:18:00.279Z,98517.34
2023-04-04T08:20:29.468Z,98513.00
2023-04-04T08:22:58.384Z,98515.25
2023-04-04T08:25:26.770Z,98507.91
2023-04-04T08:27:55.156Z,98505.66
2023-04-04T08:30:23.710Z,98507.59
2023-04-04T08:32:52.112Z,98498.31
2023-04-04T08:35:21.100Z,98501.03
2023-04-04T08:37:49.680Z,98493.84
2023-04-04T08:40:18.486Z,98484.41
2023-04-04T08:42:48.073Z,98494.91
2023-04-04T08:48:05.190Z,98486.69
2023-04-04T08:50:35.032Z,98479.09
2023-04-04T08:53:05.735Z,98480.16
2023-04-04T08:55:34.134Z,98484.03
2023-04-04T08:58:02.794Z,98480.16
2023-04-04T09:00:31.575Z,98479.28
2023-04-04T09:03:25.252Z,98480.50
2023-04-04T09:05:56.363Z,98474.38
2023-04-04T09:08:25.759Z,98478.44
2023-04-04T09:10:54.604Z,98479.94
2023-04-04T09:13:23.772Z,98474.72
2023-04-04T09:15:58.384Z,98473.09
2023-04-04T09:18:26.766Z,98471.91
2023-04-04T09:20:55.471Z,98459.03
2023-04-04T09:23:24.729Z,98463.84
2023-04-04T09:26:03.970Z,98456.47
2023-04-04T09:28:34.381Z,98465.63
2023-04-04T09:31:06.504Z,98455.28
2023-04-04T09:33:36.056Z,98461.44
2023-04-04T09:36:11.300Z,98451.25
2023-04-04T09:38:46.364Z,98457.41
2023-04-04T09:41:19.777Z,98454.41
2023-04-04T09:43:49.418Z,98457.88
2023-04-04T09:46:22.149Z,98452.63
2023-04-04T09:48:55.856Z,98456.84
2023-04-04T09:51:24.264Z,98449.50
2023-04-04T09:53:52.886Z,98448.59
2023-04-04T09:56:22.001Z,98450.41
2023-04-04T10:01:22.590Z,98452.66
2023-04-04T10:03:58.084Z,98455.03
2023-04-04T10:06:27.821Z,98466.88
2023-04-04T10:08:59.426Z,98455.94
2023-04-04T10:11:35.717Z,98459.22
2023-04-04T10:14:07.675Z,98465.34
2023-04-04T10:16:40.141Z,98462.97
2023-04-04T10:19:09.777Z,98463.13
2023-04-04T10:21:38.306Z,98462.69
2023-04-04T10:24:11.234Z,98467.28
2023-04-04T10:26:39.824Z,98463.41
2023-04-04T10:29:08.285Z,98460.84
2023-04-04T10:31:42.239Z,98469.22
2023-04-04T10:34:46.313Z,98457.38
2023-04-04T10:37:18.632Z,98459.19
2023-04-04T10:40:05.354Z,98463.03
2023-04-04T10:42:47.419Z,98466.00
2023-04-04T10:45:21.646Z,98465.72
2023-04-04T10:47:51.908Z,98466.75
2023-04-04T10:50:21.922Z,98469.28
2023-04-04T10:52:51.861Z,98474.47
2023-04-04T10:55:20.778Z,98466.84
2023-04-04T10:57:53.515Z,98469.94
2023-04-04T11:00:24.550Z,98473.78
2023-04-04T11:03:01.079Z,98481.25
2023-04-04T11:05:38.521Z,98487.94
2023-04-04T11:08:09.837Z,98490.31
2023-04-04T11:10:46.204Z,98487.00
2023-04-04T11:13:33.440Z,98488.59
2023-04-04T11:16:08.471Z,98500.78
2023-04-04T11:18:42.749Z,98505.06
2023-04-04T11:21:20.826Z,98501.56
2023-04-04T11:23:49.672Z,98512.44
2023-04-04T11:26:38.139Z,98501.00
2023-04-04T11:29:10.593Z,98506.19
2023-04-04T11:31:46.180Z,98503.28
2023-04-04T11:34:16.315Z,98512.81
2023-04-04T11:36:45.927Z,98511.34
2023-04-04T11:39:29.461Z,98520.09
2023-04-04T11:42:09.287Z,98519.59
2023-04-04T11:45:04.605Z,98526.84
2023-04-04T11:47:33.303Z,98537.06
2023-04-04T11:50:03.423Z,98543.00
2023-04-04T11:52:39.321Z,98545.50
2023-04-04T11:55:19.114Z,98556.16
2023-04-04T11:57:52.443Z,98556.38
2023-04-04T12:00:38.876Z,98566.22
2023-04-04T12:03:11.978Z,98563.63
2023-04-04T12:05:42.442Z,98568.03
2023-04-04T12:08:13.437Z,98568.84
2023-04-04T12:10:42.320Z,98573.22
2023-04-04T12:13:11.644Z,98574.03
2023-04-04T12:15:40.551Z,98576.34
2023-04-04T12:18:10.156Z,98581.47
2023-04-04T12:20:42.471Z,98586.00
2023-04-04T12:23:11.135Z,98593.94
2023-04-04T12:25:45.048Z,98590.56
2023-04-04T12:28:14.023Z,98591.38
2023-04-04T12:30:42.668Z,98598.00
2023-04-04T12:33:11.173Z,98603.84
2023-04-04T12:35:40.062Z,98601.81
2023-04-04T12:38:11.674Z,98612.59
2023-04-04T12:40:41.003Z,98611.28
2023-04-04T12:43:10.659Z,98614.88
2023-04-04T12:45:41.557Z,98618.63
2023-04-04T12:48:15.847Z,98620.16
2023-04-04T12:51:11.555Z,98626.78
2023-04-04T12:53:59.373Z,98630.56
2023-04-04T12:56:28.978Z,98643.53
2023-04-04T12:59:05.680Z,98648.06
2023-04-04T13:01:34.527Z,98644.13
2023-04-04T13:04:05.662Z,98653.56
2023-04-04T13:06:34.569Z,98651.69
2023-04-04T13:09:03.205Z,98657.72
2023-04-04T13:11:58.810Z,98657.88
2023-04-04T13:14:28.831Z,98665.41
2023-04-04T13:17:09.282Z,98677.06
2023-04-04T13:19:37.896Z,98670.28
2023-04-04T13:22:10.457Z,98677.06
2023-04-04T13:24:39.883Z,98681.03
2023-04-04T13:27:09.314Z,98680.06
2023-04-04T13:29:37.750Z,98683.81
2023-04-04T13:32:06.457Z,98691.34
2023-04-04T13:34:36.953Z,98692.47
2023-04-04T13:37:05.635Z,98702.06
2023-04-04T13:39:34.139Z,98698.28
2023-04-04T13:42:04.485Z,98705.06
2023-04-04T13:44:32.974Z,98709.78
2023-04-04T13:47:01.523Z,98708.25
2023-04-04T13:49:30.005Z,98714.47
2023-04-04T13:51:58.476Z,98714.28
2023-04-04T13:54:27.575Z,98726.13
2023-04-04T13:56:55.979Z,98727.22
2023-04-04T13:59:24.408Z,98727.78
2023-04-04T14:01:53.021Z,98730.22
2023-04-04T14:04:24.052Z,98731.53
2023-04-04T14:06:52.819Z,98746.78
2023-04-04T14:09:21.297Z,98741.69
2023-04-04T14:11:49.672Z,98743.56
2023-04-04T14:14:18.367Z,98749.75
2023-04-04T14:16:46.842Z,98758.00
2023-04-04T14:19:16.502Z,98759.31
2023-04-04T14:21:44.938Z,98764.22
2023-04-04T14:24:13.380Z,98770.41
2023-04-04T14:26:41.830Z,98770.97
2023-04-04T14:29:10.263Z,98770.78
2023-04-04T14:31:38.770Z,98783.94
2023-04-04T14:34:08.329Z,98776.75
2023-04-04T14:36:37.474Z,98780.88
2023-04-04T14:39:06.115Z,98777.31
2023-04-04T14:41:34.634Z,98785.78
2023-04-04T14:44:03.253Z,98786.34
2023-04-04T14:46:32.155Z,98784.84
2023-04-04T14:49:00.754Z,98779.75
2023-04-04T14:51:29.298Z,98780.31
2023-04-04T14:53:58.142Z,98786.50
2023-04-04T14:56:27.098Z,98788.56
2023-04-04T14:58:55.794Z,98793.47
2023-04-04T15:01:24.696Z,98789.88
2023-04-04T15:03:54.962Z,98798.91
2023-04-04T15:06:23.478Z,98797.41
2023-04-04T15:08:52.061Z,98792.88
2023-04-04T15:11:23.968Z,98794.16
2023-04-04T15:13:52.304Z,98787.56
2023-04-04T15:16:20.668Z,98799.41
2023-04-04T15:18:49.046Z,98801.28
2023-04-04T15:21:17.971Z,98805.97
2023-04-04T15:23:46.992Z,98799.34
2023-04-04T15:26:15.338Z,98800.66
2023-04-04T15:28:43.673Z,98801.97
2023-04-04T15:31:14.957Z,98804.59
2023-04-04T15:33:44.292Z,98812.28
2023-04-04T15:36:12.613Z,98815.66
2023-04-04T15:38:41.817Z,98809.28
2023-04-04T15:41:11.337Z,98807.00
2023-04-04T15:43:39.772Z,98805.50
2023-04-04T15:46:08.209Z,98797.38
2023-04-04T15:48:36.776Z,98805.09
2023-04-04T15:51:05.689Z,98810.53
2023-04-04T15:53:34.501Z,98809.03
2023-04-04T15:56:03.085Z,98806.53
2023-04-04T15:58:31.522Z,98807.09
2023-04-04T16:00:59.982Z,98811.22
2023-04-04T16:03:28.574Z,98804.63
2023-04-04T16:05:57.406Z,98805.69
2023-04-04T16:08:25.751Z,98801.91
2023-04-04T16:10:54.236Z,98799.44
2023-04-04T16:13:23.607Z,98810.72
2023-04-04T16:15:52.020Z,98804.88
2023-04-04T16:18:20.362Z,98805.44
2023-04-04T16:20:48.750Z,98805.22
2023-04-04T16:23:19.401Z,98804.28
2023-04-04T16:25:47.985Z,98815.34
2023-04-04T16:28:16.441Z,98811.56
2023-04-04T16:30:44.904Z,98812.66
2023-04-04T16:33:13.270Z,98808.13
2023-04-04T16:35:41.801Z,98797.94
2023-04-04T16:38:10.207Z,98805.44
2023-04-04T16:40:38.814Z,98807.28
2023-04-04T16:43:07.478Z,98792.25
2023-04-04T16:45:35.923Z,98792.59
2023-04-04T16:48:04.324Z,98792.38
2023-04-04T16:50:32.706Z,98793.28
2023-04-04T16:53:01.904Z,98793.06
2023-04-04T16:55:30.438Z,98789.81
2023-04-04T16:57:59.561Z,98787.31
2023-04-04T17:00:27.908Z,98787.44
2023-04-04T17:02:56.803Z,98784.22
2023-04-04T17:05:25.266Z,98785.88
2023-04-04T17:07:53.608Z,98783.38
2023-04-04T17:10:22.330Z,98780.72
2023-04-04T17:12:50.742Z,98777.44
2023-04-04T17:15:19.602Z,98770.09
2023-04-04T17:17:47.984Z,98773.81
2023-04-04T17:20:20.047Z,98772.63
2023-04-04T17:22:50.591Z,98763.56
2023-04-04T17:25:21.526Z,98763.66
2023-04-04T17:27:49.913Z,98770.69
2023-04-04T17:30:18.415Z,98767.25
2023-04-04T17:32:47.898Z,98763.25
2023-04-04T17:35:16.815Z,98759.81
2023-04-04T17:37:45.263Z,98761.66
2023-04-04T17:40:14.099Z,98760.44
2023-04-04T17:42:42.833Z,98760.56
2023-04-04T17:45:11.601Z,98760.88
2023-04-04T17:47:40.400Z,98756.91
2023-04-04T17:50:09.185Z,98760.59
2023-04-04T17:52:37.817Z,98759.41
2023-04-04T17:55:06.555Z,98760.47
2023-04-04T17:57:35.154Z,98752.34
2023-04-04T18:00:03.536Z,98756.47
2023-04-04T18:02:32.018Z,98751.16
2023-04-04T18:05:00.652Z,98758.63
2023-04-04T18:07:29.036Z,98752.75
2023-04-04T18:09:57.533Z,98759.69
2023-04-04T18:12:28.133Z,98752.34
2023-04-04T18:14:56.564Z,98748.56
2023-04-04T18:17:25.690Z,98746.06
2023-04-04T18:19:55.649Z,98746.59
2023-04-04T18:22:24.187Z,98741.50
2023-04-04T18:24:52.545Z,98741.81
2023-04-04T18:27:20.888Z,98745.72
2023-04-04T18:29:49.346Z,98738.16
2023-04-04T18:32:19.048Z,98742.59
2023-04-04T18:34:47.542Z,98735.56
2023-04-04T18:37:16.145Z,98734.34
2023-04-04T18:39:46.440Z,98731.63
2023-04-04T18:42:15.041Z,98728.59
2023-04-04T18:44:43.530Z,98720.50
2023-04-04T18:47:12.706Z,98721.78
2023-04-04T18:49:41.121Z,98721.03
2023-04-04T18:52:09.480Z,98712.38
2023-04-04T18:54:38.166Z,98709.16
2023-04-04T18:57:06.614Z,98707.41
2023-04-04T18:59:35.768Z,98713.53
2023-04-04T19:02:04.175Z,98706.69
2023-04-04T19:04:36.056Z,98705.19
2023-04-04T19:07:07.839Z,98701.41
2023-04-04T19:09:39.092Z,98703.22
2023-04-04T19:12:07.560Z,98703.22
2023-04-04T19:14:35.909Z,98700.97
2023-04-04T19:17:04.388Z,98703.56
2023-04-04T19:19:32.766Z,98708.94
2023-04-04T19:22:01.448Z,98706.69
2023-04-04T19:24:30.408Z,98707.22
2023-04-04T19:26:58.766Z,98703.22
2023-04-04T19:29:27.146Z,98700.50
2023-04-04T19:31:56.378Z,98694.19
2023-04-04T19:34:24.681Z,98702.72
2023-04-04T19:36:53.105Z,98706.38
2023-04-04T19:39:24.311Z,98704.63
2023-04-04T19:41:52.747Z,98697.28
2023-04-04T19:44:22.189Z,98698.63
2023-04-04T19:46:51.251Z,98695.91
2023-04-04T19:49:20.247Z,98691.88
2023-04-04T19:51:55.364Z,98693.16
2023-04-04T19:54:32.994Z,98690.16
2023-04-04T19:57:08.577Z,98700.06
2023-04-04T19:59:58.790Z,98696.28
2023-04-04T20:02:37.130Z,98692.50
2023-04-04T20:05:28.147Z,98693.03
2023-04-04T20:07:56.975Z,98696.59
2023-04-04T20:10:40.384Z,98698.66
2023-04-04T20:13:09.633Z,98693.56
2023-04-04T20:15:48.282Z,98689.78
2023-04-04T20:18:29.837Z,98693.88
2023-04-04T20:20:59.561Z,98692.38
2023-04-04T20:23:28.695Z,98698.25
2023-04-04T20:26:10.886Z,98693.94
2023-04-04T20:28:39.342Z,98695.75
2023-04-04T20:31:11.660Z,98696.28
2023-04-04T20:33:42.275Z,98700.38
2023-04-04T20:36:21.292Z,98697.34
2023-04-04T20:38:50.013Z,98697.13
2023-04-04T20:41:25.409Z,98703.25
2023-04-04T20:43:59.479Z,98694.63
2023-04-04T20:46:29.063Z,98703.56
2023-04-04T20:48:57.667Z,98711.00
2023-04-04T20:51:32.374Z,98715.63
2023-04-04T20:54:05.178Z,98711.31
2023-04-04T20:56:47.546Z,98711.84
2023-04-04T20:59:37.861Z,98712.88
2023-04-04T21:02:10.830Z,98721.06
2023-04-04T21:04:40.690Z,98715.22
2023-04-04T21:07:09.352Z,98720.59
2023-04-04T21:09:37.775Z,98719.06
2023-04-04T21:12:07.798Z,98716.81
2023-04-04T21:14:39.680Z,98722.41
2023-04-04T21:17:08.513Z,98724.97
2023-04-04T21:19:37.015Z,98725.75
2023-04-04T21:22:07.965Z,98728.31
2023-04-04T21:24:37.560Z,98732.63
2023-04-04T21:27:08.277Z,98730.38
2023-04-04T21:29:36.756Z,98741.34
2023-04-04T21:32:08.925Z,98739.84
2023-04-04T21:34:37.307Z,98749.53
2023-04-04T21:37:08.231Z,98740.88
2023-04-04T21:39:37.864Z,98751.09
2023-04-04T21:42:08.829Z,98748.81
2023-04-04T21:44:43.217Z,98752.13
2023-04-04T21:47:12.622Z,98754.72
2023-04-04T21:49:41.931Z,98759.28
2023-04-04T21:52:12.671Z,98771.03
2023-04-04T21:54:41.516Z,98777.16
2023-04-04T21:57:09.866Z,98783.06
2023-04-04T21:59:38.275Z,98782.84
2023-04-04T22:02:06.728Z,98791.00
2023-04-04T22:04:35.134Z,98790.78
2023-04-04T22:07:03.473Z,98791.81
2023-04-04T22:09:31.819Z,98803.03
2023-04-04T22:12:03.878Z,98801.28
2023-04-04T22:14:32.864Z,98803.59
2023-04-04T22:17:03.975Z,98805.66
2023-04-04T22:19:44.089Z,98815.34
2023-04-04T22:22:12.408Z,98822.19
2023-04-04T22:24:41.764Z,98813.56
2023-04-04T22:27:10.113Z,98819.69
2023-04-04T22:29:38.457Z,98820.22
2023-04-04T22:32:07.232Z,98813.63
2023-04-04T22:34:35.845Z,98821.25
2023-04-04T22:37:05.416Z,98829.66
2023-04-04T22:39:34.199Z,98828.91
2023-04-04T22:42:02.600Z,98836.53
2023-04-04T22:44:31.040Z,98844.19
2023-04-04T22:46:59.437Z,98847.75
2023-04-04T22:49:27.771Z,98850.31
2023-04-04T22:51:56.489Z,98848.78
2023-04-04T22:54:25.290Z,98850.84
2023-04-04T22:56:54.017Z,98852.88
2023-04-04T22:59:22.416Z,98860.50
2023-04-04T23:01:50.813Z,98861.03
2023-04-04T23:04:19.347Z,98865.88
2023-04-04T23:06:47.962Z,98864.88
2023-04-04T23:09:16.653Z,98865.41
2023-04-04T23:11:44.984Z,98869.72
2023-04-04T23:14:15.930Z,98877.38
2023-04-04T23:16:44.454Z,98885.78
2023-04-04T23:19:15.805Z,98883.50
2023-04-04T23:21:44.757Z,98891.38
2023-04-04T23:24:13.190Z,98894.16
2023-04-04T23:26:41.678Z,98892.88
2023-04-04T23:29:10.813Z,98907.88
2023-04-04T23:31:39.203Z,98898.44
2023-04-04T23:34:07.660Z,98903.53
2023-04-04T23:36:36.384Z,98913.44
2023-04-04T23:39:05.112Z,98914.97
2023-04-04T23:41:33.481Z,98914.97
2023-04-04T23:44:01.942Z,98922.84
2023-04-04T23:46:33.484Z,98929.47
2023-04-04T23:49:02.316Z,98928.94
2023-04-04T23:51:39.982Z,98934.25
2023-04-04T23:54:09.800Z,98946.50
2023-04-04T23:56:38.655Z,98953.09
2023-04-04T23:59:07.761Z,98945.91
